Time;durP1;ratioP1;P1;durP2;ratioP2;P2;SDS_P1;SDS_P2;PMS_P1;PMS_P2;Temp;Humidity;BMP_temperature;BMP_pressure;BME280_temperature;BME280_humidity;BME280_pressure;Samples;Min_cycle;Max_cycle;Signal;HPM_P1;HPM_P2
2022/10/02 00:00:16;;;;;;;28.67;5.95;;;;;;;12.23;100.00;101339.81;5110193;28;19908;-88
2022/10/02 00:02:49;;;;;;;28.80;6.25;;;;;;;12.23;100.00;101353.00;5108927;28;20379;-87
2022/10/02 00:05:17;;;;;;;34.67;6.68;;;;;;;12.24;100.00;101346.78;5110853;28;20015;-87
2022/10/02 00:07:51;;;;;;;30.48;6.47;;;;;;;12.24;100.00;101352.06;5111514;28;20388;-87
2022/10/02 00:10:33;;;;;;;33.42;6.68;;;;;;;12.25;100.00;101348.47;5104449;28;20036;-87
2022/10/02 00:13:06;;;;;;;38.08;7.30;;;;;;;12.24;100.00;101358.19;5090380;28;20137;-87
2022/10/02 00:15:34;;;;;;;41.20;7.22;;;;;;;12.25;100.00;101353.75;5088479;28;20027;-87
2022/10/02 00:18:11;;;;;;;36.72;6.80;;;;;;;12.26;100.00;101354.59;5090313;28;20398;-87
2022/10/02 00:20:44;;;;;;;29.15;6.30;;;;;;;12.28;100.00;101364.06;5102987;28;20528;-88
2022/10/02 00:23:24;;;;;;;34.05;6.63;;;;;;;12.30;100.00;101366.59;5108581;28;20020;-87
2022/10/02 00:26:00;;;;;;;33.25;6.25;;;;;;;12.30;100.00;101367.44;5110159;28;20024;-87
2022/10/02 00:28:30;;;;;;;32.88;7.10;;;;;;;12.30;100.00;101362.16;5110943;28;20483;-87
2022/10/02 00:31:27;;;;;;;30.33;6.82;;;;;;;12.32;100.00;101367.31;5109166;28;20031;-87
2022/10/02 00:34:08;;;;;;;31.77;6.45;;;;;;;12.31;100.00;101369.13;5094557;28;20008;-87
2022/10/02 00:36:34;;;;;;;34.42;6.82;;;;;;;12.29;100.00;101370.19;5090130;28;20028;-87
2022/10/02 00:39:12;;;;;;;30.13;6.60;;;;;;;12.30;100.00;101380.63;5090618;28;20020;-87
2022/10/02 00:42:00;;;;;;;39.10;6.72;;;;;;;12.30;100.00;101370.06;5090697;28;20042;-87
2022/10/02 00:44:45;;;;;;;40.83;7.18;;;;;;;12.32;100.00;101378.72;5088411;28;20036;-88
2022/10/02 00:47:37;;;;;;;33.03;6.95;;;;;;;12.32;100.00;101381.34;5090098;28;20028;-88
2022/10/02 00:50:16;;;;;;;30.50;7.03;;;;;;;12.34;100.00;101375.97;5090889;28;20027;-87
2022/10/02 00:53:22;;;;;;;35.80;6.70;;;;;;;12.35;100.00;101373.22;5105896;28;20035;-88
2022/10/02 00:56:00;;;;;;;33.08;7.00;;;;;;;12.37;100.00;101376.59;5109342;28;20383;-87
2022/10/02 00:59:03;;;;;;;34.20;6.47;;;;;;;12.37;100.00;101379.22;5087771;28;20079;-87
2022/10/02 01:01:48;;;;;;;30.13;6.80;;;;;;;12.38;100.00;101370.34;5088298;28;20028;-87
2022/10/02 01:04:19;;;;;;;36.97;6.57;;;;;;;12.36;100.00;101380.19;5089543;28;20016;-87
2022/10/02 01:06:45;;;;;;;32.05;6.93;;;;;;;12.37;100.00;101381.84;5088105;28;20055;-87
2022/10/02 01:09:11;;;;;;;36.50;6.50;;;;;;;12.38;100.00;101380.91;5089117;28;20506;-86
2022/10/02 01:11:37;;;;;;;37.47;7.03;;;;;;;12.40;100.00;101379.00;5099225;28;20024;-86
2022/10/02 01:14:03;;;;;;;38.17;6.72;;;;;;;12.40;100.00;101386.91;5087886;28;20081;-86
2022/10/02 01:16:30;;;;;;;37.92;6.65;;;;;;;12.43;100.00;101378.81;5105108;28;20100;-86
2022/10/02 01:18:56;;;;;;;37.65;7.07;;;;;;;12.45;100.00;101379.53;5108067;28;20034;-85
2022/10/02 01:21:31;;;;;;;35.45;6.35;;;;;;;12.46;100.00;101377.72;5108272;28;20023;-86
2022/10/02 01:24:15;;;;;;;31.65;6.40;;;;;;;12.44;100.00;101369.94;5109960;28;20443;-86
2022/10/02 01:26:41;;;;;;;36.03;6.20;;;;;;;12.48;100.00;101370.53;5109287;28;20548;-87
2022/10/02 01:29:06;;;;;;;39.20;7.63;;;;;;;12.48;100.00;101367.91;5107221;28;20028;-86
2022/10/02 01:31:34;;;;;;;33.88;6.38;;;;;;;12.50;100.00;101369.47;5108721;28;20069;-86
2022/10/02 01:33:59;;;;;;;33.25;6.90;;;;;;;12.51;100.00;101359.75;5109313;28;20019;-86
2022/10/02 01:36:25;;;;;;;40.38;7.10;;;;;;;12.51;100.00;101362.41;5108698;28;20184;-86
2022/10/02 01:38:52;;;;;;;39.40;6.68;;;;;;;12.48;100.00;101371.38;5110056;28;20024;-85
2022/10/02 01:41:17;;;;;;;34.67;7.05;;;;;;;12.49;100.00;101373.06;5107459;28;20058;-87
2022/10/02 01:43:52;;;;;;;42.10;7.30;;;;;;;12.52;100.00;101372.84;5109514;28;20476;-88
2022/10/02 01:46:30;;;;;;;34.22;7.13;;;;;;;12.53;100.00;101376.31;5109585;28;20031;-88
2022/10/02 01:49:15;;;;;;;35.40;7.15;;;;;;;12.54;100.00;101384.13;5108480;28;20379;-88
2022/10/02 01:51:40;;;;;;;38.08;7.05;;;;;;;12.53;100.00;101385.09;5108643;28;20027;-88
2022/10/02 01:54:40;;;;;;;40.42;7.28;;;;;;;12.55;100.00;101385.81;5107292;28;20380;-88
2022/10/02 01:57:05;;;;;;;40.75;7.68;;;;;;;12.55;100.00;101377.06;5099329;28;20028;-88
2022/10/02 01:59:46;;;;;;;40.13;7.22;;;;;;;12.59;100.00;101383.78;5104920;28;20502;-88
2022/10/02 02:02:28;;;;;;;38.78;7.05;;;;;;;12.58;100.00;101376.81;5103125;28;20032;-87
2022/10/02 02:05:12;;;;;;;33.75;6.82;;;;;;;12.59;100.00;101381.16;5089299;28;20111;-87
2022/10/02 02:07:58;;;;;;;38.10;7.63;;;;;;;12.62;100.00;101382.72;5089124;28;20028;-87
2022/10/02 02:10:38;;;;;;;39.42;7.85;;;;;;;12.65;100.00;101382.47;5088885;28;20040;-88
2022/10/02 02:13:30;;;;;;;36.83;7.10;;;;;;;12.64;100.00;101381.63;5089978;28;20035;-86
2022/10/02 02:16:31;;;;;;;42.42;7.55;;;;;;;12.68;100.00;101382.25;5108020;28;20297;-88
2022/10/02 02:18:59;;;;;;;39.33;8.07;;;;;;;12.69;100.00;101382.13;5106640;28;20020;-88
2022/10/02 02:21:30;;;;;;;38.30;7.22;;;;;;;12.70;100.00;101389.09;5107494;28;20019;-88
2022/10/02 02:24:03;;;;;;;38.45;7.30;;;;;;;12.73;100.00;101393.31;5109014;28;20051;-88
2022/10/02 02:26:29;;;;;;;38.28;7.78;;;;;;;12.76;100.00;101398.38;5109480;28;20107;-89
2022/10/02 02:29:00;;;;;;;39.72;7.43;;;;;;;12.78;100.00;101393.81;5108948;28;20023;-89
2022/10/02 02:31:31;;;;;;;36.53;6.30;;;;;;;12.80;100.00;101390.09;5104056;28;20625;-90
2022/10/02 02:34:03;;;;;;;35.95;7.72;;;;;;;12.81;100.00;101383.03;5089473;28;20027;-90
2022/10/02 02:36:34;;;;;;;29.75;6.63;;;;;;;12.85;100.00;101395.91;5100560;28;20028;-89
2022/10/02 02:39:08;;;;;;;33.22;6.45;;;;;;;12.89;100.00;101391.22;5108465;28;20038;-89
2022/10/02 02:41:45;;;;;;;29.52;6.32;;;;;;;12.92;100.00;101390.16;5109309;28;20123;-89
2022/10/02 02:44:21;;;;;;;26.20;5.65;;;;;;;12.90;100.00;101382.34;5110456;28;20101;-88
2022/10/02 02:47:03;;;;;;;20.92;5.07;;;;;;;12.88;100.00;101384.28;5112365;28;20034;-89
2022/10/02 02:49:36;;;;;;;18.25;4.05;;;;;;;12.83;100.00;101381.97;5107205;28;20027;-86
2022/10/02 02:52:06;;;;;;;15.60;3.90;;;;;;;12.81;100.00;101388.31;5110987;28;20118;-87
2022/10/02 02:54:38;;;;;;;13.10;3.72;;;;;;;12.76;100.00;101387.81;5112937;28;20012;-89
2022/10/02 02:57:07;;;;;;;14.80;3.72;;;;;;;12.71;100.00;101396.06;5110794;28;20031;-86
2022/10/02 02:59:35;;;;;;;12.73;3.08;;;;;;;12.66;100.00;101405.28;5102225;28;20426;-89
2022/10/02 03:02:00;;;;;;;11.23;2.78;;;;;;;12.60;100.00;101393.38;5103275;28;20039;-88
2022/10/02 03:04:26;;;;;;;9.23;2.50;;;;;;;12.55;100.00;101392.88;5096905;28;20032;-88
2022/10/02 03:06:57;;;;;;;12.20;2.90;;;;;;;12.50;100.00;101393.22;5092370;28;20023;-89
2022/10/02 03:09:26;;;;;;;9.43;2.35;;;;;;;12.46;100.00;101393.56;5090825;28;20055;-88
2022/10/02 03:12:25;;;;;;;11.43;2.67;;;;;;;12.44;100.00;101391.03;5091319;28;20020;-88
2022/10/02 03:15:18;;;;;;;8.52;2.28;;;;;;;12.39;100.00;101385.22;5090786;28;20024;-88
2022/10/02 03:17:48;;;;;;;7.78;2.40;;;;;;;12.34;100.00;101391.81;5093236;28;20027;-88
2022/10/02 03:20:41;;;;;;;9.93;2.50;;;;;;;12.34;100.00;101397.91;5098663;28;20397;-88
2022/10/02 03:23:24;;;;;;;9.93;2.38;;;;;;;12.29;100.00;101396.56;5111102;28;20128;-88
2022/10/02 03:25:51;;;;;;;;;;;;;;;12.38;100.00;101396.75;5112430;28;20097;-88
2022/10/02 03:28:24;;;;;;;8.75;3.00;;;;;;;12.24;100.00;101397.75;5110737;28;19915;-87
2022/10/02 03:30:52;;;;;;;7.22;2.47;;;;;;;12.27;100.00;101398.47;5112642;28;20024;-88
2022/10/02 03:33:19;;;;;;;10.63;3.20;;;;;;;12.27;100.00;101387.94;5111060;28;20030;-85
2022/10/02 03:35:44;;;;;;;10.73;3.13;;;;;;;12.27;100.00;101394.03;5112561;28;20026;-87
2022/10/02 03:38:13;;;;;;;15.38;3.60;;;;;;;12.23;100.00;101393.44;5111690;28;20024;-87
2022/10/02 03:40:39;;;;;;;11.20;3.55;;;;;;;12.26;100.00;101402.91;5110466;28;20023;-86
2022/10/02 03:43:04;;;;;;;11.32;3.22;;;;;;;12.26;100.00;101396.78;5111210;28;20059;-87
2022/10/02 03:45:30;;;;;;;14.40;3.50;;;;;;;12.26;100.00;101396.78;5106904;28;20032;-88
2022/10/02 03:47:58;;;;;;;11.15;4.10;;;;;;;12.26;100.00;101425.81;5090979;28;20464;-88
2022/10/02 03:50:23;;;;;;;11.32;4.05;;;;;;;12.22;100.00;101427.84;5091866;28;20027;-89
2022/10/02 03:52:51;;;;;;;12.75;4.32;;;;;;;12.21;100.00;101436.69;5090075;28;20110;-86
2022/10/02 03:55:34;;;;;;;12.85;4.78;;;;;;;12.24;100.00;101428.56;5089785;28;20036;-86
2022/10/02 03:58:12;;;;;;;19.80;6.57;;;;;;;12.23;100.00;101429.53;5089605;28;20028;-86
2022/10/02 04:00:41;;;;;;;21.20;9.57;;;;;;;12.28;100.00;101411.56;5089207;28;20020;-86
2022/10/02 04:03:20;;;;;;;25.95;12.00;;;;;;;12.34;100.00;101410.28;5089387;28;20023;-87
2022/10/02 04:06:00;;;;;;;29.05;12.57;;;;;;;12.36;100.00;101409.19;5091178;28;20112;-87
2022/10/02 04:08:38;;;;;;;24.33;11.45;;;;;;;12.39;100.00;101414.25;5090068;28;20043;-87
2022/10/02 04:11:12;;;;;;;25.85;11.70;;;;;;;12.38;100.00;101417.00;5103535;28;20042;-86
2022/10/02 04:13:38;;;;;;;22.38;11.10;;;;;;;12.36;100.00;101408.38;5110976;28;20028;-86
2022/10/02 04:16:10;;;;;;;25.52;10.98;;;;;;;12.35;100.00;101412.78;5108609;28;20057;-86
2022/10/02 04:19:00;;;;;;;20.25;9.65;;;;;;;12.37;100.00;101425.88;5111435;28;20429;-86
2022/10/02 04:21:43;;;;;;;19.05;9.13;;;;;;;12.34;100.00;101421.66;5107621;28;20031;-86
2022/10/02 04:24:27;;;;;;;26.52;9.07;;;;;;;12.31;100.00;101421.88;5109386;28;20016;-86
2022/10/02 04:27:19;;;;;;;20.75;8.80;;;;;;;12.35;100.00;101420.72;5108131;28;20032;-87
2022/10/02 04:29:54;;;;;;;22.33;9.57;;;;;;;12.35;100.00;101420.72;5100651;28;20034;-87
2022/10/02 04:32:25;;;;;;;25.08;10.05;;;;;;;12.34;100.00;101411.13;5109141;28;20019;-86
2022/10/02 04:34:51;;;;;;;27.23;11.02;;;;;;;12.37;100.00;101405.63;5092320;28;20024;-86
2022/10/02 04:37:52;;;;;;;28.17;11.75;;;;;;;12.40;100.00;101415.94;5089482;28;20085;-86
2022/10/02 04:41:02;;;;;;;29.20;12.27;;;;;;;12.46;100.00;101414.69;5089773;28;20039;-86
2022/10/02 04:43:42;;;;;;;37.53;15.32;;;;;;;12.49;100.00;101427.66;5073895;28;20054;-86
2022/10/02 04:46:45;;;;;;;41.05;17.08;;;;;;;12.53;100.00;101432.59;5100454;28;20030;-87
2022/10/02 04:49:25;;;;;;;35.10;18.63;;;;;;;12.57;100.00;101448.22;5089961;28;20522;-86
2022/10/02 04:52:28;;;;;;;35.47;19.98;;;;;;;12.61;100.00;101439.94;5088610;28;20024;-85
2022/10/02 04:55:51;;;;;;;42.28;22.40;;;;;;;12.67;100.00;101443.94;5090173;28;20040;-86
2022/10/02 04:58:40;;;;;;;39.17;20.88;;;;;;;12.70;100.00;101443.72;5026065;28;20083;-84
2022/10/02 05:01:19;;;;;;;48.63;19.83;;;;;;;12.74;100.00;101442.53;5010442;28;20025;-84
2022/10/02 05:04:22;;;;;;;41.53;20.02;;;;;;;12.79;100.00;101440.38;5064505;28;20028;-85
2022/10/02 05:07:16;;;;;;;41.85;20.90;;;;;;;12.83;100.00;101445.34;5090156;28;20403;-84
2022/10/02 05:10:00;;;;;;;46.17;22.10;;;;;;;12.85;100.00;101459.28;5090341;28;20032;-84
2022/10/02 05:12:41;;;;;;;40.38;22.85;;;;;;;12.86;100.00;101453.06;5089262;28;20051;-84
2022/10/02 05:15:39;;;;;;;50.58;24.13;;;;;;;12.89;100.00;101449.34;5089704;28;20104;-85
2022/10/02 05:18:19;;;;;;;46.15;23.38;;;;;;;12.87;100.00;101451.25;5101917;28;20024;-85
2022/10/02 05:21:18;;;;;;;48.45;24.20;;;;;;;12.89;100.00;101448.50;5109418;28;20149;-85
2022/10/02 05:24:22;;;;;;;45.28;23.67;;;;;;;12.88;100.00;101452.09;5109167;28;20027;-85
2022/10/02 05:27:10;;;;;;;42.58;22.88;;;;;;;12.84;100.00;101452.31;5088992;28;20063;-85
2022/10/02 05:29:51;;;;;;;43.22;22.40;;;;;;;12.86;100.00;101465.41;5074886;28;20040;-86
2022/10/02 05:32:35;;;;;;;41.17;22.58;;;;;;;12.86;100.00;101465.41;5107958;28;20039;-86
2022/10/02 05:35:03;;;;;;;41.08;21.23;;;;;;;12.85;100.00;101466.38;5101698;28;20015;-86
2022/10/02 05:38:06;;;;;;;46.95;20.25;;;;;;;12.87;100.00;101464.47;5108562;28;20035;-86
2022/10/02 05:40:49;;;;;;;40.92;18.52;;;;;;;12.85;100.00;101469.00;5109658;28;20031;-87
2022/10/02 05:43:41;;;;;;;43.05;18.25;;;;;;;12.87;100.00;101475.03;5109349;28;20048;-87
2022/10/02 05:46:13;;;;;;;42.50;17.25;;;;;;;12.86;100.00;101481.25;5108875;28;20035;-87
2022/10/02 05:48:51;;;;;;;41.50;15.93;;;;;;;12.89;100.00;101475.75;5110354;28;20449;-87
2022/10/02 05:51:35;;;;;;;43.00;15.30;;;;;;;12.89;100.00;101475.75;5108027;28;20031;-87
2022/10/02 05:54:24;;;;;;;35.92;13.55;;;;;;;12.91;100.00;101473.84;5107681;28;20016;-88
2022/10/02 05:56:56;;;;;;;36.60;13.13;;;;;;;12.90;100.00;101479.22;5108494;28;20051;-87
2022/10/02 05:59:36;;;;;;;43.00;12.32;;;;;;;12.93;100.00;101473.72;5109079;28;20023;-87
2022/10/02 06:02:17;;;;;;;38.88;10.70;;;;;;;12.93;100.00;101471.94;5092996;28;20122;-87
2022/10/02 06:04:51;;;;;;;40.22;10.75;;;;;;;12.95;100.00;101477.09;5089660;28;20030;-87
2022/10/02 06:07:17;;;;;;;40.95;10.95;;;;;;;12.96;100.00;101471.69;5088491;28;20441;-87
2022/10/02 06:09:47;;;;;;;40.38;10.32;;;;;;;12.98;100.00;101482.16;5089420;28;20056;-87
2022/10/02 06:12:27;;;;;;;50.05;10.40;;;;;;;13.00;100.00;101482.88;5089001;28;20035;-87
2022/10/02 06:14:59;;;;;;;36.33;9.48;;;;;;;12.99;100.00;101495.25;5089002;28;20023;-87
2022/10/02 06:17:33;;;;;;;42.63;9.57;;;;;;;13.00;100.00;101496.94;5092134;28;20020;-87
2022/10/02 06:20:08;;;;;;;37.08;9.00;;;;;;;13.03;100.00;101499.34;5100253;28;20045;-87
2022/10/02 06:22:41;;;;;;;33.20;8.45;;;;;;;13.04;100.00;101505.47;5112061;28;20028;-87
2022/10/02 06:25:18;;;;;;;35.90;8.68;;;;;;;13.06;100.00;101509.69;5113549;28;20038;-87
2022/10/02 06:27:54;;;;;;;32.30;8.35;;;;;;;13.07;100.00;101516.66;5106574;28;20024;-87
2022/10/02 06:30:20;;;;;;;36.15;8.88;;;;;;;13.07;100.00;101508.72;5106496;28;20031;-87
2022/10/02 06:33:05;;;;;;;36.90;8.90;;;;;;;13.08;100.00;101507.75;5113657;28;20476;-87
2022/10/02 06:35:44;;;;;;;40.05;9.07;;;;;;;13.10;100.00;101503.22;5111209;28;20027;-87
2022/10/02 06:38:28;;;;;;;34.10;8.73;;;;;;;13.11;100.00;101510.19;5113102;28;20022;-87
2022/10/02 06:41:19;;;;;;;30.38;8.50;;;;;;;13.14;100.00;101517.88;5113765;28;20459;-87
2022/10/02 06:44:01;;;;;;;32.40;8.20;;;;;;;13.12;100.00;101519.78;5111116;28;20131;-87
2022/10/02 06:46:57;;;;;;;37.90;9.85;;;;;;;13.15;100.00;101522.19;5113004;28;20083;-88
2022/10/02 06:49:23;;;;;;;36.10;9.38;;;;;;;13.14;100.00;101523.16;5112629;28;20031;-87
2022/10/02 06:52:07;;;;;;;38.20;9.30;;;;;;;13.16;100.00;101536.25;5111984;28;20023;-89
2022/10/02 06:54:52;;;;;;;29.95;9.75;;;;;;;13.16;100.00;101541.53;5111697;28;20053;-88
2022/10/02 06:57:29;;;;;;;33.10;9.55;;;;;;;13.19;100.00;101544.00;5110359;28;20522;-87
2022/10/02 07:00:00;;;;;;;32.22;9.98;;;;;;;13.19;100.00;101546.63;5113472;28;20538;-87
2022/10/02 07:02:28;;;;;;;32.05;10.32;;;;;;;13.23;100.00;101549.91;5107194;28;20482;-87
2022/10/02 07:05:13;;;;;;;30.88;10.13;;;;;;;13.22;100.00;101553.53;5108170;28;20115;-87
2022/10/02 07:08:02;;;;;;;29.25;10.10;;;;;;;13.26;100.00;101560.25;5112828;28;20085;-87
2022/10/02 07:10:43;;;;;;;30.77;10.15;;;;;;;13.27;100.00;101556.66;5110367;28;20023;-87
2022/10/02 07:13:26;;;;;;;28.30;10.75;;;;;;;13.27;100.00;101559.31;5112474;28;20492;-88
2022/10/02 07:16:16;;;;;;;34.67;12.98;;;;;;;13.30;100.00;101564.38;5112831;28;20032;-87
2022/10/02 07:18:44;;;;;;;26.58;13.65;;;;;;;13.31;100.00;101550.19;5112126;28;20492;-88
2022/10/02 07:21:12;;;;;;;28.85;13.40;;;;;;;13.32;100.00;101557.16;5111964;28;20019;-88
2022/10/02 07:24:29;;;;;;;34.38;16.40;;;;;;;13.35;100.00;101556.94;5106533;28;20020;-88
2022/10/02 07:27:19;;;;;;;33.97;16.10;;;;;;;13.37;100.00;101555.00;5026831;28;20052;-87
2022/10/02 07:30:11;;;;;;;26.95;15.77;;;;;;;13.42;100.00;101563.44;5099171;28;20035;-87
2022/10/02 07:32:36;;;;;;;26.33;16.08;;;;;;;13.40;100.00;101554.78;5106565;28;20425;-87
2022/10/02 07:35:18;;;;;;;23.98;15.93;;;;;;;13.41;100.00;101561.75;5112190;28;20024;-87
2022/10/02 07:37:54;;;;;;;26.38;15.38;;;;;;;13.44;100.00;101567.66;5110679;28;20053;-87
2022/10/02 07:40:22;;;;;;;27.17;14.95;;;;;;;13.46;100.00;101567.53;5109731;28;20028;-87
2022/10/02 07:43:14;;;;;;;24.88;13.60;;;;;;;13.51;100.00;101568.03;5112056;28;20126;-87
2022/10/02 07:45:47;;;;;;;27.33;13.47;;;;;;;13.52;100.00;101564.44;5110334;28;20039;-87
2022/10/02 07:48:13;;;;;;;26.50;13.48;;;;;;;13.55;100.00;101569.50;5110019;28;20299;-87
2022/10/02 07:51:05;;;;;;;27.90;13.20;;;;;;;13.61;100.00;101573.47;5099140;28;20095;-87
2022/10/02 07:53:44;;;;;;;23.83;12.05;;;;;;;13.62;100.00;101570.75;5105089;28;20434;-88
2022/10/02 07:56:18;;;;;;;24.35;12.88;;;;;;;13.64;100.00;101574.13;5098929;28;20388;-87
2022/10/02 07:59:04;;;;;;;22.65;12.32;;;;;;;13.68;100.00;101577.38;5108378;28;20027;-86
2022/10/02 08:01:37;;;;;;;28.48;11.85;;;;;;;13.77;100.00;101577.50;5100423;28;20062;-87
2022/10/02 08:04:30;;;;;;;24.17;11.48;;;;;;;13.84;100.00;101584.97;5107112;28;20023;-87
2022/10/02 08:07:02;;;;;;;25.77;10.95;;;;;;;13.91;100.00;101592.31;5101871;28;20472;-86
2022/10/02 08:09:36;;;;;;;23.48;11.15;;;;;;;13.97;100.00;101591.00;5104372;28;20028;-86
2022/10/02 08:12:41;;;;;;;22.52;11.00;;;;;;;14.03;100.00;101601.16;5091650;28;20032;-87
2022/10/02 08:15:14;;;;;;;21.92;11.60;;;;;;;14.07;100.00;101597.31;5085730;27;20040;-87
2022/10/02 08:17:51;;;;;;;22.08;11.55;;;;;;;14.10;100.00;101602.38;5095716;28;20046;-87
2022/10/02 08:20:21;;;;;;;19.90;12.15;;;;;;;14.15;100.00;101609.94;5094281;28;20028;-87
2022/10/02 08:22:52;;;;;;;25.08;12.63;;;;;;;14.18;100.00;101609.72;5105098;28;20028;-87
2022/10/02 08:25:24;;;;;;;22.65;12.25;;;;;;;14.25;100.00;101614.41;5105235;28;20035;-87
2022/10/02 08:28:04;;;;;;;23.47;12.30;;;;;;;14.30;100.00;101614.91;5090701;28;20031;-87
2022/10/02 08:30:29;;;;;;;20.52;11.13;;;;;;;14.32;100.00;101612.13;5088510;28;20309;-86
2022/10/02 08:32:55;;;;;;;19.60;11.05;;;;;;;14.36;100.00;101624.16;5093005;28;20077;-87
2022/10/02 08:35:34;;;;;;;17.40;11.10;;;;;;;14.36;100.00;101614.41;5104857;28;20156;-86
2022/10/02 08:38:18;;;;;;;22.98;10.63;;;;;;;14.40;100.00;101617.66;5106832;28;20012;-86
2022/10/02 08:40:50;;;;;;;20.48;11.05;;;;;;;14.44;100.00;101626.28;5108418;28;20383;-86
2022/10/02 08:43:21;;;;;;;22.23;10.85;;;;;;;14.49;100.00;101629.41;5110017;28;20047;-86
2022/10/02 08:45:50;;;;;;;19.50;9.60;;;;;;;14.52;100.00;101637.09;5107891;28;20125;-86
2022/10/02 08:48:33;;;;;;;22.27;9.98;;;;;;;14.60;100.00;101645.28;5106145;28;20027;-86
2022/10/02 08:51:34;;;;;;;17.90;9.15;;;;;;;14.59;100.00;101639.16;5108466;28;20026;-88
2022/10/02 08:54:43;;;;;;;19.10;9.30;;;;;;;14.69;100.00;101644.56;5027501;28;20021;-87
2022/10/02 08:57:20;;;;;;;15.80;7.93;;;;;;;14.73;100.00;101638.06;5088151;28;20119;-88
2022/10/02 09:00:11;;;;;;;18.33;7.03;;;;;;;14.82;100.00;101642.66;5097348;28;20050;-88
2022/10/02 09:03:01;;;;;;;19.92;8.15;;;;;;;14.86;100.00;101649.41;5106448;28;20027;-88
2022/10/02 09:05:26;;;;;;;21.23;7.28;;;;;;;14.90;100.00;101656.13;5110445;28;20035;-87
2022/10/02 09:08:21;;;;;;;19.20;7.40;;;;;;;14.88;100.00;101647.47;5110032;28;20023;-87
2022/10/02 09:11:11;;;;;;;18.00;7.50;;;;;;;14.92;100.00;101656.84;5110151;28;20081;-84
2022/10/02 09:14:10;;;;;;;18.08;7.25;;;;;;;14.88;100.00;101660.72;5096411;28;20068;-83
2022/10/02 09:17:29;;;;;;;16.63;6.75;;;;;;;14.97;100.00;101662.63;5090872;28;20034;-85
2022/10/02 09:20:04;;;;;;;19.17;7.45;;;;;;;14.94;100.00;101662.88;5103388;28;20027;-84
2022/10/02 09:23:07;;;;;;;21.65;6.72;;;;;;;15.10;100.00;101667.78;5110498;28;20785;-84
2022/10/02 09:25:41;;;;;;;18.55;6.40;;;;;;;15.19;100.00;101666.19;5097073;28;20027;-83
2022/10/02 09:28:40;;;;;;;19.00;6.40;;;;;;;15.32;100.00;101661.63;5108527;28;20024;-83
2022/10/02 09:31:52;;;;;;;17.70;6.15;;;;;;;15.39;100.00;101659.31;5099553;28;20024;-83
2022/10/02 09:34:46;;;;;;;17.83;6.45;;;;;;;15.43;100.00;101664.22;5061374;28;20040;-84
2022/10/02 09:37:57;;;;;;;19.35;6.20;;;;;;;15.48;100.00;101666.50;5106871;28;20042;-83
2022/10/02 09:40:53;;;;;;;17.90;5.72;;;;;;;15.45;100.00;101677.38;5108239;28;20027;-83
2022/10/02 09:43:33;;;;;;;18.67;6.10;;;;;;;15.52;100.00;101679.38;5109182;28;20128;-83
2022/10/02 09:46:34;;;;;;;19.58;6.30;;;;;;;15.56;100.00;101680.81;5096778;28;20027;-83
2022/10/02 09:48:59;;;;;;;17.17;5.80;;;;;;;15.70;100.00;101681.56;5109613;28;20061;-83
2022/10/02 09:51:43;;;;;;;19.17;5.40;;;;;;;15.77;100.00;101677.44;5102137;28;20373;-83
2022/10/02 09:54:26;;;;;;;17.40;5.80;;;;;;;15.70;100.00;101682.41;5107727;28;20370;-82
2022/10/02 09:57:11;;;;;;;19.38;5.38;;;;;;;15.72;100.00;101685.75;5095391;28;20051;-83
2022/10/02 09:59:58;;;;;;;19.30;5.57;;;;;;;15.69;100.00;101690.50;5109137;28;20046;-83
2022/10/02 10:03:08;;;;;;;18.83;5.70;;;;;;;15.69;100.00;101696.63;5109634;28;20106;-83
2022/10/02 10:05:53;;;;;;;19.90;5.80;;;;;;;15.87;100.00;101694.25;5088422;28;20130;-83
2022/10/02 10:08:46;;;;;;;22.58;5.97;;;;;;;16.21;100.00;101687.00;5108225;28;20495;-83
2022/10/02 10:11:20;;;;;;;;;;;;;;;16.44;100.00;101687.72;5102547;28;20027;-82
2022/10/02 10:14:13;;;;;;;20.02;6.03;;;;;;;16.63;97.91;101700.25;5107686;28;19912;-83
2022/10/02 10:17:04;;;;;;;20.10;6.17;;;;;;;16.52;95.37;101690.53;5059598;28;20039;-83
2022/10/02 10:19:58;;;;;;;17.25;5.57;;;;;;;16.61;96.90;101695.06;5107407;28;20028;-83
2022/10/02 10:22:42;;;;;;;18.50;4.78;;;;;;;16.71;98.01;101706.59;5096771;28;20073;-83
2022/10/02 10:25:17;;;;;;;18.85;4.93;;;;;;;16.67;95.11;101709.66;5105917;28;20114;-82
2022/10/02 10:28:00;;;;;;;18.88;5.05;;;;;;;16.62;95.82;101710.03;5108084;28;20027;-82
2022/10/02 10:30:37;;;;;;;13.80;4.10;;;;;;;16.51;92.75;101715.44;5107875;28;20483;-82
2022/10/02 10:33:33;;;;;;;21.25;5.10;;;;;;;16.49;94.51;101730.66;5107738;28;20042;-82
2022/10/02 10:40:14;;;;;;;19.00;4.70;;;;;;;16.19;92.92;101740.22;5053510;28;20083;-82
2022/10/02 10:43:09;;;;;;;19.27;4.82;;;;;;;16.29;95.10;101748.25;5086894;28;20137;-82
2022/10/02 10:45:40;;;;;;;17.50;5.18;;;;;;;16.23;93.64;101751.44;5106310;28;20498;-82
2022/10/02 10:48:18;;;;;;;18.27;4.75;;;;;;;16.29;93.46;101754.41;5108962;28;20031;-82
2022/10/02 10:50:49;;;;;;;19.90;4.88;;;;;;;16.30;91.79;101753.44;5107005;28;20069;-82
2022/10/02 10:53:40;;;;;;;19.15;4.90;;;;;;;16.30;92.23;101747.28;5106173;28;20020;-82
2022/10/02 10:56:45;;;;;;;18.33;4.35;;;;;;;16.36;93.25;101749.41;5093579;28;20387;-82
2022/10/02 10:59:43;;;;;;;17.17;4.47;;;;;;;16.35;92.44;101749.56;5107075;28;20019;-82
2022/10/02 11:02:45;;;;;;;16.88;4.63;;;;;;;16.39;92.41;101743.84;5107587;28;20100;-82
2022/10/02 11:05:35;;;;;;;16.30;4.28;;;;;;;16.46;93.12;101738.88;5108377;28;20487;-82
2022/10/02 11:08:22;;;;;;;17.75;4.13;;;;;;;16.50;92.68;101737.66;5100123;28;20038;-83
2022/10/02 11:11:01;;;;;;;16.98;4.57;;;;;;;16.51;90.85;101736.69;5096303;28;20028;-82
2022/10/02 11:13:44;;;;;;;16.13;3.90;;;;;;;16.51;90.78;101740.19;5110695;28;20035;-82
2022/10/02 11:16:54;;;;;;;16.70;3.97;;;;;;;16.68;91.26;101748.56;5110553;28;20032;-82
2022/10/02 11:19:35;;;;;;;18.42;3.67;;;;;;;16.66;88.06;101746.03;5086590;28;20104;-83
2022/10/02 11:22:29;;;;;;;17.77;4.65;;;;;;;16.63;89.03;101740.94;5112640;28;20019;-82
2022/10/02 11:25:19;;;;;;;20.27;4.53;;;;;;;16.69;89.41;101745.75;5106351;28;20425;-83
2022/10/02 11:28:22;;;;;;;16.85;4.60;;;;;;;16.75;90.18;101755.03;5096900;28;20071;-82
2022/10/02 11:31:08;;;;;;;20.15;4.72;;;;;;;16.63;88.78;101756.88;5090743;28;20031;-83
2022/10/02 11:33:49;;;;;;;18.13;4.60;;;;;;;16.57;87.25;101758.25;5094812;28;20036;-82
2022/10/02 11:36:20;;;;;;;17.83;4.40;;;;;;;16.50;88.96;101767.72;5091885;28;20054;-83
2022/10/02 11:39:07;;;;;;;21.77;4.30;;;;;;;16.53;88.16;101771.94;5096246;28;20019;-83
2022/10/02 11:42:11;;;;;;;15.00;3.45;;;;;;;16.55;89.11;101759.34;5107660;28;20030;-83
2022/10/02 11:45:17;;;;;;;16.33;3.92;;;;;;;16.52;88.20;101770.25;5056075;28;20050;-82
2022/10/02 11:48:17;;;;;;;16.63;3.67;;;;;;;16.61;89.55;101775.63;5106627;28;20361;-83
2022/10/02 11:51:20;;;;;;;22.50;5.10;;;;;;;16.73;89.03;101757.81;5102485;28;20130;-83
2022/10/02 11:54:14;;;;;;;22.02;5.63;;;;;;;17.04;87.30;101765.81;5093905;28;20080;-83
2022/10/02 11:56:59;;;;;;;19.40;5.75;;;;;;;17.05;86.02;101762.19;5107226;28;20031;-82
2022/10/02 11:59:28;;;;;;;15.75;5.15;;;;;;;17.06;84.29;101758.56;5107285;28;20027;-82
2022/10/02 12:02:10;;;;;;;18.42;5.63;;;;;;;17.01;85.90;101763.44;5107786;28;20019;-82
2022/10/02 12:04:51;;;;;;;16.95;5.22;;;;;;;16.92;87.85;101770.38;5099109;28;20426;-82
2022/10/02 12:07:25;;;;;;;21.00;7.63;;;;;;;16.75;89.90;101766.50;5107735;28;20111;-82
2022/10/02 12:10:09;;;;;;;17.13;5.72;;;;;;;16.51;88.16;101779.19;5103608;28;20039;-83
2022/10/02 12:12:50;;;;;;;17.60;5.63;;;;;;;16.33;90.01;101783.38;5100114;28;20088;-84
2022/10/02 12:15:37;;;;;;;18.25;5.85;;;;;;;16.21;92.03;101779.94;5104829;28;20326;-85